createdAt,value
2017-07-15T00:01:21.489Z,99.90
2017-07-15T00:03:47.784Z,99.90
2017-07-15T00:06:14.100Z,99.90
2017-07-15T00:08:40.366Z,99.90
2017-07-15T00:11:06.630Z,99.90
2017-07-15T00:13:32.924Z,99.90
2017-07-15T00:15:59.254Z,99.90
2017-07-15T00:18:26.296Z,99.90
2017-07-15T00:20:52.582Z,99.90
2017-07-15T00:23:18.865Z,99.90
2017-07-15T00:25:45.155Z,99.90
2017-07-15T00:28:11.421Z,99.90
2017-07-15T00:30:37.708Z,99.90
2017-07-15T00:33:03.979Z,99.90
2017-07-15T00:35:30.259Z,99.90
2017-07-15T00:37:56.541Z,99.90
2017-07-15T00:40:22.826Z,99.90
2017-07-15T00:42:49.098Z,99.90
2017-07-15T00:45:16.138Z,99.90
2017-07-15T00:47:42.415Z,99.90
2017-07-15T00:50:08.687Z,99.90
2017-07-15T00:52:34.999Z,99.90
2017-07-15T00:55:01.289Z,99.90
2017-07-15T00:57:28.320Z,99.90
2017-07-15T00:59:55.339Z,99.90
2017-07-15T01:02:21.611Z,99.90
2017-07-15T01:04:48.623Z,99.90
2017-07-15T01:07:14.932Z,99.90
2017-07-15T01:09:41.211Z,99.90
2017-07-15T01:12:08.205Z,99.90
2017-07-15T01:14:34.493Z,99.90
2017-07-15T01:17:00.792Z,99.90
2017-07-15T01:19:27.094Z,99.90
2017-07-15T01:21:53.350Z,99.90
2017-07-15T01:24:19.675Z,99.90
2017-07-15T01:26:45.956Z,99.90
2017-07-15T01:29:12.264Z,99.90
2017-07-15T01:31:39.283Z,99.90
2017-07-15T01:34:05.584Z,99.90
2017-07-15T01:36:33.053Z,99.90
2017-07-15T01:38:59.353Z,99.90
2017-07-15T01:41:25.654Z,99.90
2017-07-15T01:43:52.669Z,99.90
2017-07-15T01:46:18.981Z,99.90
2017-07-15T01:48:45.293Z,99.90
2017-07-15T01:51:11.621Z,99.90
2017-07-15T01:53:37.906Z,99.90
2017-07-15T01:56:04.947Z,99.90
2017-07-15T01:58:32.794Z,99.90
2017-07-15T02:00:59.102Z,99.90
2017-07-15T02:03:25.394Z,99.90
2017-07-15T02:05:51.696Z,99.90
2017-07-15T02:08:17.980Z,99.90
2017-07-15T02:10:44.258Z,99.90
2017-07-15T02:13:11.302Z,99.90
2017-07-15T02:15:37.586Z,99.90
2017-07-15T02:18:03.870Z,99.90
2017-07-15T02:20:30.129Z,99.90
2017-07-15T02:22:56.426Z,99.90
2017-07-15T02:25:23.447Z,99.90
2017-07-15T02:27:49.721Z,99.90
2017-07-15T02:30:16.727Z,99.90
2017-07-15T02:32:43.033Z,99.90
2017-07-15T02:35:09.308Z,99.90
2017-07-15T02:37:36.351Z,99.90
2017-07-15T02:40:02.640Z,99.90
2017-07-15T02:42:28.902Z,99.90
2017-07-15T02:44:55.185Z,99.90
2017-07-15T02:47:21.451Z,99.90
2017-07-15T02:49:47.759Z,99.90
2017-07-15T02:52:14.043Z,99.90
2017-07-15T02:54:41.066Z,99.90
2017-07-15T02:57:07.340Z,99.90
2017-07-15T02:59:33.635Z,99.90
2017-07-15T03:01:59.905Z,99.90
2017-07-15T03:04:26.193Z,99.90
2017-07-15T03:06:52.510Z,99.90
2017-07-15T03:09:18.793Z,99.90
2017-07-15T03:11:45.071Z,99.90
2017-07-15T03:14:11.398Z,99.90
2017-07-15T03:16:37.707Z,99.90
2017-07-15T03:19:04.004Z,99.90
2017-07-15T03:21:30.311Z,99.90
2017-07-15T03:23:56.627Z,99.90
2017-07-15T03:26:36.120Z,99.90
2017-07-15T03:29:03.117Z,99.90
2017-07-15T03:31:29.421Z,99.90
2017-07-15T03:33:55.735Z,99.90
2017-07-15T03:36:22.042Z,99.90
2017-07-15T03:38:48.331Z,99.90
2017-07-15T03:41:14.619Z,99.90
2017-07-15T03:43:40.902Z,99.90
2017-07-15T03:46:07.942Z,99.90
2017-07-15T03:48:34.212Z,99.90
2017-07-15T03:51:00.486Z,99.90
2017-07-15T03:53:26.775Z,99.90
2017-07-15T03:55:53.053Z,99.90
2017-07-15T03:58:20.117Z,99.90
2017-07-15T04:00:47.128Z,99.90
2017-07-15T04:03:13.428Z,99.90
2017-07-15T04:05:39.711Z,99.90
2017-07-15T04:08:05.978Z,99.90
2017-07-15T04:10:32.283Z,99.90
2017-07-15T04:12:59.296Z,99.90
2017-07-15T04:15:25.609Z,99.90
2017-07-15T04:17:51.899Z,99.90
2017-07-15T04:20:18.186Z,99.90
2017-07-15T04:22:45.258Z,99.90
2017-07-15T04:25:11.608Z,99.90
2017-07-15T04:27:37.878Z,99.90
2017-07-15T04:30:04.182Z,99.90
2017-07-15T04:32:30.484Z,99.90
2017-07-15T04:34:56.785Z,99.90
2017-07-15T04:37:23.104Z,99.90
2017-07-15T04:39:49.379Z,99.90
2017-07-15T04:42:15.682Z,99.90
2017-07-15T04:44:42.760Z,99.90
2017-07-15T04:47:09.854Z,99.90
2017-07-15T04:49:36.175Z,99.90
2017-07-15T04:52:02.502Z,99.90
2017-07-15T04:54:28.771Z,99.90
2017-07-15T04:56:55.810Z,99.90
2017-07-15T04:59:22.106Z,99.90
2017-07-15T05:01:48.390Z,99.90
2017-07-15T05:04:15.427Z,99.90
2017-07-15T05:06:41.730Z,99.90
2017-07-15T05:09:08.025Z,99.90
2017-07-15T05:11:34.321Z,99.90
2017-07-15T05:14:01.358Z,99.90
2017-07-15T05:16:28.397Z,99.90
2017-07-15T05:18:55.436Z,99.90
2017-07-15T05:21:21.719Z,99.90
2017-07-15T05:23:48.006Z,99.90
2017-07-15T05:26:14.312Z,99.90
2017-07-15T05:28:40.615Z,99.90
2017-07-15T05:31:06.909Z,99.90
2017-07-15T05:33:33.948Z,99.90
2017-07-15T05:36:00.238Z,99.90
2017-07-15T05:38:26.519Z,99.90
2017-07-15T05:40:53.558Z,99.90
2017-07-15T05:43:19.864Z,99.90
2017-07-15T05:45:46.158Z,99.90
2017-07-15T05:48:12.431Z,99.90
2017-07-15T05:50:38.741Z,99.90
2017-07-15T05:53:05.050Z,99.90
2017-07-15T05:55:31.334Z,99.90
2017-07-15T05:57:58.361Z,99.90
2017-07-15T06:00:25.421Z,99.90
2017-07-15T06:02:52.474Z,99.90
2017-07-15T06:05:19.508Z,99.90
2017-07-15T06:07:46.554Z,99.90
2017-07-15T06:10:12.889Z,99.90
2017-07-15T06:12:39.177Z,99.90
2017-07-15T06:15:05.534Z,99.90
2017-07-15T06:17:31.843Z,99.90
2017-07-15T06:19:58.128Z,99.90
2017-07-15T06:22:25.168Z,99.90
2017-07-15T06:24:52.203Z,99.90
2017-07-15T06:27:19.303Z,99.90
2017-07-15T06:29:45.645Z,99.90
2017-07-15T06:32:11.929Z,99.90
2017-07-15T06:34:38.979Z,99.90
2017-07-15T06:37:06.016Z,99.90
2017-07-15T06:39:33.078Z,99.90
2017-07-15T06:42:00.120Z,99.90
2017-07-15T06:44:27.814Z,99.90
2017-07-15T06:46:54.116Z,99.90
2017-07-15T06:49:21.182Z,99.90
2017-07-15T06:51:47.476Z,99.90
2017-07-15T06:54:14.508Z,99.90
2017-07-15T06:56:40.817Z,99.90
2017-07-15T06:59:07.104Z,99.90
2017-07-15T07:01:33.401Z,99.90
2017-07-15T07:03:59.715Z,99.90
2017-07-15T07:06:26.027Z,99.90
2017-07-15T07:08:52.347Z,99.90
2017-07-15T07:11:18.629Z,99.90
2017-07-15T07:13:45.686Z,99.90
2017-07-15T07:16:12.741Z,99.90
2017-07-15T07:18:39.890Z,99.90
2017-07-15T07:21:06.266Z,99.90
2017-07-15T07:23:32.582Z,99.90
2017-07-15T07:25:58.903Z,99.90
2017-07-15T07:28:25.196Z,99.90
2017-07-15T07:30:51.469Z,99.90
2017-07-15T07:33:17.783Z,99.90
2017-07-15T07:35:44.071Z,99.90
2017-07-15T07:38:10.378Z,99.90
2017-07-15T07:40:36.674Z,99.90
2017-07-15T07:43:03.005Z,99.90
2017-07-15T07:45:29.297Z,99.90
2017-07-15T07:47:56.344Z,99.90
2017-07-15T07:50:23.376Z,99.90
2017-07-15T07:52:49.701Z,99.90
2017-07-15T07:55:15.963Z,99.90
2017-07-15T07:57:42.995Z,99.90
2017-07-15T08:00:10.050Z,99.90
2017-07-15T08:02:37.117Z,99.90
2017-07-15T08:05:03.420Z,99.90
2017-07-15T08:07:29.724Z,99.90
2017-07-15T08:09:56.020Z,99.90
2017-07-15T08:12:22.324Z,99.90
2017-07-15T08:14:49.404Z,99.90
2017-07-15T08:17:16.698Z,99.90
2017-07-15T08:19:42.996Z,99.90
2017-07-15T08:22:09.279Z,99.90
2017-07-15T08:24:36.358Z,99.90
2017-07-15T08:27:02.652Z,99.90
2017-07-15T08:29:29.705Z,99.90
2017-07-15T08:31:56.006Z,99.90
2017-07-15T08:34:23.172Z,99.90
2017-07-15T08:36:50.215Z,99.90
2017-07-15T08:39:16.511Z,99.90
2017-07-15T08:41:42.802Z,99.90
2017-07-15T08:44:09.115Z,99.90
2017-07-15T08:46:36.189Z,99.90
2017-07-15T08:49:02.463Z,99.90
2017-07-15T08:51:28.755Z,99.90
2017-07-15T08:53:55.080Z,99.90
2017-07-15T08:56:21.367Z,99.90
2017-07-15T08:58:48.432Z,99.90
2017-07-15T09:01:15.465Z,99.90
2017-07-15T09:03:42.504Z,99.90
2017-07-15T09:06:08.791Z,99.90
2017-07-15T09:08:35.108Z,99.90
2017-07-15T09:11:01.412Z,99.90
2017-07-15T09:13:28.459Z,99.90
2017-07-15T09:15:55.502Z,99.90
2017-07-15T09:18:22.563Z,99.90
2017-07-15T09:20:49.591Z,99.90
2017-07-15T09:23:16.633Z,99.90
2017-07-15T09:25:42.944Z,99.90
2017-07-15T09:28:09.235Z,99.90
2017-07-15T09:30:35.549Z,99.90
2017-07-15T09:33:01.847Z,99.90
2017-07-15T09:35:28.196Z,99.90
2017-07-15T09:37:55.228Z,99.90
2017-07-15T09:40:21.541Z,99.90
2017-07-15T09:42:47.898Z,99.90
2017-07-15T09:45:14.201Z,99.90
2017-07-15T09:47:40.486Z,99.90
2017-07-15T09:50:06.793Z,99.90
2017-07-15T09:52:33.844Z,99.90
2017-07-15T09:55:00.171Z,99.90
2017-07-15T09:57:27.196Z,99.90
2017-07-15T09:59:53.477Z,99.90
2017-07-15T10:02:19.803Z,99.90
2017-07-15T10:04:46.111Z,99.90
2017-07-15T10:07:13.156Z,99.90
2017-07-15T10:09:40.178Z,99.90
2017-07-15T10:12:06.460Z,99.90
2017-07-15T10:14:32.737Z,99.90
2017-07-15T10:16:59.029Z,99.90
2017-07-15T10:19:25.308Z,99.90
2017-07-15T10:21:51.643Z,99.20
2017-07-15T10:24:18.101Z,99.20
2017-07-15T10:26:44.378Z,99.90
2017-07-15T10:29:10.666Z,99.90
2017-07-15T10:31:36.982Z,99.90
2017-07-15T10:34:03.286Z,99.90
2017-07-15T10:36:29.570Z,99.90
2017-07-15T10:38:55.877Z,99.90
2017-07-15T10:41:22.166Z,99.90
2017-07-15T10:43:48.446Z,99.90
2017-07-15T10:46:14.721Z,99.90
2017-07-15T10:48:41.003Z,99.90
2017-07-15T10:51:07.314Z,99.90
2017-07-15T10:53:33.602Z,99.90
2017-07-15T10:55:59.897Z,99.90
2017-07-15T10:58:26.183Z,99.90
2017-07-15T11:00:52.479Z,99.90
2017-07-15T11:03:18.752Z,99.90
2017-07-15T11:05:45.804Z,99.90
2017-07-15T11:08:12.809Z,99.90
2017-07-15T11:10:39.107Z,99.90
2017-07-15T11:13:05.398Z,99.90
2017-07-15T11:15:32.446Z,99.90
2017-07-15T11:17:59.489Z,99.90
2017-07-15T11:20:26.530Z,99.90
2017-07-15T11:22:52.845Z,99.90
2017-07-15T11:25:19.129Z,99.90
2017-07-15T11:27:45.424Z,99.90
2017-07-15T11:30:11.712Z,99.90
2017-07-15T11:32:37.999Z,99.90
2017-07-15T11:35:05.018Z,99.90
2017-07-15T11:37:31.332Z,99.90
2017-07-15T11:39:57.617Z,99.90
2017-07-15T11:42:23.927Z,99.90
2017-07-15T11:44:50.964Z,99.90
2017-07-15T11:47:18.006Z,99.90
2017-07-15T11:49:44.326Z,99.90
2017-07-15T11:52:10.635Z,99.90
2017-07-15T11:54:36.938Z,99.90
2017-07-15T11:57:03.229Z,99.90
2017-07-15T11:59:29.514Z,99.90
2017-07-15T12:01:55.790Z,99.90
2017-07-15T12:04:22.079Z,99.90
2017-07-15T12:06:48.359Z,99.90
2017-07-15T12:09:15.437Z,99.90
2017-07-15T12:11:41.721Z,99.90
2017-07-15T12:14:08.052Z,99.90
2017-07-15T12:16:35.104Z,99.90
2017-07-15T12:19:01.408Z,99.90
2017-07-15T12:21:27.742Z,99.90
2017-07-15T12:23:54.094Z,99.90
2017-07-15T12:26:21.139Z,99.90
2017-07-15T12:28:47.426Z,99.90
2017-07-15T12:31:13.743Z,99.90
2017-07-15T12:33:40.019Z,99.90
2017-07-15T12:36:07.082Z,99.90
2017-07-15T12:38:33.370Z,99.90
2017-07-15T12:40:59.669Z,99.90
2017-07-15T12:43:25.976Z,99.90
2017-07-15T12:45:52.283Z,99.90
2017-07-15T12:48:18.591Z,99.90
2017-07-15T12:50:45.851Z,99.90
2017-07-15T12:53:12.137Z,99.90
2017-07-15T12:55:38.439Z,99.90
2017-07-15T12:58:04.738Z,99.90
2017-07-15T13:00:31.032Z,99.90
2017-07-15T13:02:57.387Z,99.90
2017-07-15T13:05:23.734Z,99.90
2017-07-15T13:07:50.017Z,99.90
2017-07-15T13:10:16.305Z,99.90
2017-07-15T13:12:42.609Z,99.90
2017-07-15T13:15:08.930Z,99.90
2017-07-15T13:17:35.235Z,99.90
2017-07-15T13:20:01.530Z,99.90
2017-07-15T13:22:28.831Z,99.90
2017-07-15T13:24:55.147Z,99.90
2017-07-15T13:27:21.417Z,99.90
2017-07-15T13:29:47.709Z,99.90
2017-07-15T13:32:14.002Z,99.90
2017-07-15T13:34:40.288Z,99.90
2017-07-15T13:37:06.596Z,99.90
2017-07-15T13:39:33.252Z,99.90
2017-07-15T13:41:59.542Z,99.90
2017-07-15T13:44:26.596Z,99.90
2017-07-15T13:46:52.929Z,99.90
2017-07-15T13:49:19.238Z,99.90
2017-07-15T13:51:45.523Z,99.90
2017-07-15T13:54:11.830Z,99.90
2017-07-15T13:56:38.113Z,99.90
2017-07-15T13:59:04.428Z,99.90
2017-07-15T14:01:30.723Z,99.90
2017-07-15T14:03:57.049Z,99.90
2017-07-15T14:06:23.369Z,97.00
2017-07-15T14:08:49.670Z,94.70
2017-07-15T14:11:15.973Z,98.40
2017-07-15T14:13:42.267Z,93.10
2017-07-15T14:16:08.603Z,94.20
2017-07-15T14:18:34.887Z,92.00
2017-07-15T14:21:01.189Z,92.50
2017-07-15T14:23:27.482Z,91.10
2017-07-15T14:25:53.766Z,86.40
2017-07-15T14:28:20.067Z,89.30
2017-07-15T14:30:46.381Z,87.90
2017-07-15T14:33:12.667Z,89.00
2017-07-15T14:35:38.956Z,89.70
2017-07-15T14:38:05.250Z,89.50
2017-07-15T14:40:32.283Z,81.90
2017-07-15T14:42:59.328Z,82.90
2017-07-15T14:45:26.373Z,83.40
2017-07-15T14:47:52.688Z,83.30
2017-07-15T14:50:18.985Z,86.60
2017-07-15T14:52:45.242Z,84.60
2017-07-15T14:55:11.539Z,84.30
2017-07-15T14:57:37.827Z,85.00
2017-07-15T15:00:04.105Z,86.90
2017-07-15T15:02:30.423Z,88.50
2017-07-15T15:04:56.813Z,86.00
2017-07-15T15:07:23.851Z,82.30
2017-07-15T15:09:50.184Z,81.70
2017-07-15T15:12:17.234Z,81.30
2017-07-15T15:14:43.542Z,80.40
2017-07-15T15:17:09.816Z,77.60
2017-07-15T15:19:36.138Z,74.50
2017-07-15T15:22:02.444Z,73.80
2017-07-15T15:24:28.758Z,68.90
2017-07-15T15:26:55.065Z,66.80
2017-07-15T15:29:21.354Z,68.40
2017-07-15T15:31:47.626Z,63.90
2017-07-15T15:34:14.020Z,63.40
2017-07-15T15:36:40.339Z,68.20
2017-07-15T15:39:06.666Z,65.40
2017-07-15T15:41:33.878Z,68.70
2017-07-15T15:44:00.131Z,73.20
2017-07-15T15:46:26.459Z,73.90
2017-07-15T15:48:52.756Z,72.30
2017-07-15T15:51:19.068Z,71.60
2017-07-15T15:53:45.347Z,73.80
2017-07-15T15:56:11.661Z,73.30
2017-07-15T15:58:37.967Z,74.80
2017-07-15T16:01:04.249Z,74.40
2017-07-15T16:03:30.561Z,79.70
2017-07-15T16:05:56.822Z,83.10
2017-07-15T16:08:23.139Z,86.00
2017-07-15T16:10:49.445Z,89.50
2017-07-15T16:13:15.761Z,90.60
2017-07-15T16:15:42.379Z,91.30
2017-07-15T16:18:08.670Z,92.10
2017-07-15T16:20:34.995Z,92.20
2017-07-15T16:23:01.255Z,92.80
2017-07-15T16:25:27.574Z,92.40
2017-07-15T16:27:53.847Z,92.10
2017-07-15T16:30:20.161Z,92.40
2017-07-15T16:32:46.452Z,93.10
2017-07-15T16:35:20.569Z,91.70
2017-07-15T16:37:46.897Z,91.70
2017-07-15T16:40:13.222Z,91.10
2017-07-15T16:42:39.557Z,90.10
2017-07-15T16:45:06.616Z,86.10
2017-07-15T16:47:32.896Z,85.90
2017-07-15T16:49:59.198Z,82.50
2017-07-15T16:52:26.328Z,83.20
2017-07-15T16:54:52.616Z,83.20
2017-07-15T16:57:18.933Z,83.40
2017-07-15T16:59:45.218Z,88.50
2017-07-15T17:02:11.517Z,87.40
2017-07-15T17:04:38.555Z,87.90
2017-07-15T17:07:04.890Z,87.20
2017-07-15T17:09:31.179Z,90.00
2017-07-15T17:11:57.510Z,86.50
2017-07-15T17:14:23.828Z,85.10
2017-07-15T17:16:50.105Z,84.70
2017-07-15T17:19:16.398Z,83.80
2017-07-15T17:21:43.547Z,84.80
2017-07-15T17:24:09.823Z,88.10
2017-07-15T17:26:36.110Z,88.00
2017-07-15T17:29:02.434Z,88.90
2017-07-15T17:31:28.673Z,89.30
2017-07-15T17:33:55.038Z,89.10
2017-07-15T17:36:21.346Z,88.30
2017-07-15T17:38:47.677Z,84.80
2017-07-15T17:41:13.973Z,82.10
2017-07-15T17:43:40.270Z,80.70
2017-07-15T17:46:06.562Z,82.10
2017-07-15T17:48:32.877Z,83.90
2017-07-15T17:50:59.178Z,84.00
2017-07-15T17:53:25.445Z,86.20
2017-07-15T17:55:51.723Z,86.30
2017-07-15T17:58:18.008Z,88.30
2017-07-15T18:00:44.310Z,88.80
2017-07-15T18:03:10.609Z,89.10
2017-07-15T18:05:36.877Z,89.00
2017-07-15T18:08:03.182Z,90.10
2017-07-15T18:10:29.479Z,90.10
2017-07-15T18:12:55.781Z,91.30
2017-07-15T18:15:22.119Z,92.40
2017-07-15T18:17:48.433Z,93.20
2017-07-15T18:20:14.712Z,93.70
2017-07-15T18:22:41.742Z,93.50
2017-07-15T18:25:08.058Z,93.50
2017-07-15T18:27:34.338Z,94.00
2017-07-15T18:30:00.661Z,93.80
2017-07-15T18:32:27.716Z,93.50
2017-07-15T18:34:54.042Z,93.50
2017-07-15T18:37:20.339Z,93.40
2017-07-15T18:39:46.605Z,93.70
2017-07-15T18:42:12.919Z,94.20
2017-07-15T18:44:39.235Z,94.80
2017-07-15T18:47:06.278Z,94.90
2017-07-15T18:49:33.317Z,94.90
2017-07-15T18:52:00.366Z,94.60
2017-07-15T18:54:26.706Z,94.60
2017-07-15T18:56:53.054Z,94.60
2017-07-15T18:59:19.352Z,95.20
2017-07-15T19:01:45.674Z,95.60
2017-07-15T19:04:11.958Z,95.70
2017-07-15T19:06:38.234Z,95.90
2017-07-15T19:09:04.556Z,95.50
2017-07-15T19:11:30.933Z,95.80
2017-07-15T19:13:57.227Z,97.20
2017-07-15T19:16:23.540Z,98.40
2017-07-15T19:18:49.847Z,98.50
2017-07-15T19:21:16.139Z,99.10
2017-07-15T19:23:43.191Z,98.60
2017-07-15T19:26:09.479Z,98.50
2017-07-15T19:28:35.780Z,99.30
2017-07-15T19:31:02.064Z,99.70
2017-07-15T19:33:28.317Z,99.90
2017-07-15T19:35:54.612Z,99.90
2017-07-15T19:38:20.902Z,99.90
2017-07-15T19:40:47.888Z,99.90
2017-07-15T19:43:14.161Z,99.90
2017-07-15T19:45:40.445Z,99.90
2017-07-15T19:48:06.759Z,99.90
2017-07-15T19:50:33.068Z,99.90
2017-07-15T19:52:59.345Z,99.90
2017-07-15T19:55:25.648Z,99.90
2017-07-15T19:57:51.919Z,99.90
2017-07-15T20:00:18.941Z,99.90
2017-07-15T20:02:45.240Z,99.90
2017-07-15T20:05:11.515Z,99.90
2017-07-15T20:07:37.778Z,99.90
2017-07-15T20:10:04.058Z,99.90
2017-07-15T20:12:30.330Z,99.90
2017-07-15T20:14:56.598Z,99.90
2017-07-15T20:17:22.880Z,99.90
2017-07-15T20:19:49.195Z,99.90
2017-07-15T20:22:15.458Z,99.90
2017-07-15T20:24:41.731Z,99.90
2017-07-15T20:27:08.005Z,99.90
2017-07-15T20:29:34.275Z,99.90
2017-07-15T20:32:00.551Z,99.90
2017-07-15T20:34:27.572Z,99.90
2017-07-15T20:37:08.832Z,99.90
2017-07-15T20:39:35.111Z,99.90
2017-07-15T20:42:01.401Z,99.90
2017-07-15T20:44:27.745Z,99.90
2017-07-15T20:46:54.049Z,99.90
2017-07-15T20:49:20.555Z,99.90
2017-07-15T20:51:47.567Z,99.90
2017-07-15T20:54:20.776Z,99.90
2017-07-15T20:56:47.062Z,99.90
2017-07-15T20:59:13.320Z,99.90
2017-07-15T21:01:39.594Z,99.90
2017-07-15T21:04:06.902Z,99.90
2017-07-15T21:06:33.921Z,99.90
2017-07-15T21:09:00.191Z,99.90
2017-07-15T21:11:26.463Z,99.90
2017-07-15T21:13:52.767Z,99.90
2017-07-15T21:16:19.046Z,99.90
2017-07-15T21:18:45.324Z,99.90
2017-07-15T21:21:11.602Z,99.90
2017-07-15T21:23:37.891Z,99.90
2017-07-15T21:26:04.162Z,99.90
2017-07-15T21:28:30.420Z,99.90
2017-07-15T21:30:56.704Z,99.90
2017-07-15T21:33:22.958Z,99.90
2017-07-15T21:35:49.223Z,99.90
2017-07-15T21:38:15.531Z,99.90
2017-07-15T21:40:42.572Z,99.90
2017-07-15T21:43:09.609Z,99.90
2017-07-15T21:45:36.627Z,99.90
2017-07-15T21:48:02.907Z,99.90
2017-07-15T21:50:29.940Z,99.90
2017-07-15T21:52:56.966Z,99.90
2017-07-15T21:55:23.261Z,99.90
2017-07-15T21:57:49.523Z,99.90
2017-07-15T22:00:16.562Z,99.90
2017-07-15T22:02:42.891Z,99.90
2017-07-15T22:05:09.214Z,99.90
2017-07-15T22:07:35.585Z,99.90
2017-07-15T22:10:01.901Z,99.90
2017-07-15T22:12:28.163Z,99.90
2017-07-15T22:14:55.242Z,99.90
2017-07-15T22:17:21.477Z,99.90
2017-07-15T22:19:47.751Z,99.90
2017-07-15T22:22:14.018Z,99.90
2017-07-15T22:24:40.262Z,99.90
2017-07-15T22:27:06.518Z,99.90
2017-07-15T22:29:33.107Z,99.90
2017-07-15T22:31:59.402Z,99.90
2017-07-15T22:34:25.664Z,99.90
2017-07-15T22:36:52.654Z,99.90
2017-07-15T22:39:18.900Z,99.90
2017-07-15T22:41:45.192Z,99.90
2017-07-15T22:44:11.440Z,99.90
2017-07-15T22:46:37.686Z,99.90
2017-07-15T22:49:03.944Z,99.90
2017-07-15T22:51:30.943Z,99.90
2017-07-15T22:53:57.197Z,99.90
2017-07-15T22:56:23.446Z,99.90
2017-07-15T22:58:50.446Z,99.90
2017-07-15T23:01:16.694Z,99.90
2017-07-15T23:03:43.261Z,99.90
2017-07-15T23:06:10.262Z,99.90
2017-07-15T23:08:36.526Z,99.90
2017-07-15T23:11:02.767Z,99.90
2017-07-15T23:13:29.778Z,99.90
2017-07-15T23:15:56.019Z,99.90
2017-07-15T23:18:22.278Z,99.90
2017-07-15T23:20:48.556Z,99.90
2017-07-15T23:23:14.791Z,99.90
2017-07-15T23:25:41.051Z,99.90
2017-07-15T23:28:08.024Z,99.90
2017-07-15T23:30:34.282Z,99.90
2017-07-15T23:33:00.521Z,99.90
2017-07-15T23:35:26.763Z,99.90
2017-07-15T23:37:52.990Z,99.90
2017-07-15T23:40:19.235Z,99.90
2017-07-15T23:42:46.245Z,99.90
2017-07-15T23:45:13.301Z,99.90
2017-07-15T23:47:39.538Z,99.90
2017-07-15T23:50:05.785Z,99.90
2017-07-15T23:52:32.786Z,99.90
2017-07-15T23:54:59.042Z,99.90
2017-07-15T23:57:25.313Z,99.90
2017-07-15T23:59:51.542Z,99.90
